createdAt,value
2023-02-25T00:00:37.961Z,94701.44
2023-02-25T00:03:05.604Z,94722.22
2023-02-25T00:05:33.572Z,94718.66
2023-02-25T00:08:02.436Z,94717.31
2023-02-25T00:10:29.958Z,94727.47
2023-02-25T00:13:05.915Z,94728.34
2023-02-25T00:15:43.565Z,94729.22
2023-02-25T00:18:11.078Z,94738.38
2023-02-25T00:20:40.512Z,94744.59
2023-02-25T00:23:09.379Z,94742.94
2023-02-25T00:25:36.915Z,94749.22
2023-02-25T00:28:06.268Z,94741.97
2023-02-25T00:30:33.900Z,94749.50
2023-02-25T00:33:01.548Z,94737.69
2023-02-25T00:35:29.112Z,94742.66
2023-02-25T00:38:04.026Z,94746.22
2023-02-25T00:40:40.889Z,94743.97
2023-02-25T00:43:08.604Z,94739.44
2023-02-25T00:45:36.187Z,94754.72
2023-02-25T00:48:03.693Z,94757.75
2023-02-25T00:50:31.194Z,94753.91
2023-02-25T00:52:58.693Z,94750.22
2023-02-25T00:55:33.195Z,94745.59
2023-02-25T00:58:03.028Z,94728.88
2023-02-25T01:00:35.895Z,94741.00
2023-02-25T01:03:08.199Z,94743.31
2023-02-25T01:05:35.709Z,94746.53
2023-02-25T01:08:03.405Z,94728.44
2023-02-25T01:10:30.891Z,94738.31
2023-02-25T01:12:58.341Z,94729.81
2023-02-25T01:15:27.157Z,94734.22
2023-02-25T01:17:54.606Z,94736.16
2023-02-25T01:20:24.079Z,94735.25
2023-02-25T01:22:51.588Z,94718.56
2023-02-25T01:25:19.165Z,94738.06
2023-02-25T01:27:46.633Z,94741.16
2023-02-25T01:30:14.305Z,94743.25
2023-02-25T01:32:43.278Z,94744.69
2023-02-25T01:35:10.790Z,94751.50
2023-02-25T01:37:38.266Z,94750.19
2023-02-25T01:40:06.994Z,94755.59
2023-02-25T01:42:34.531Z,94753.22
2023-02-25T01:45:33.671Z,94764.63
2023-02-25T01:48:08.132Z,94761.31
2023-02-25T01:50:42.338Z,94759.69
2023-02-25T01:53:10.209Z,94752.41
2023-02-25T01:55:41.181Z,94756.88
2023-02-25T01:58:09.668Z,94762.41
2023-02-25T02:00:38.414Z,94758.22
2023-02-25T02:03:16.021Z,94759.16
2023-02-25T02:05:54.441Z,94767.00
2023-02-25T02:08:23.100Z,94762.16
2023-02-25T02:10:50.994Z,94760.94
2023-02-25T02:13:19.146Z,94769.84
2023-02-25T02:15:59.630Z,94766.41
2023-02-25T02:18:34.743Z,94764.09
2023-02-25T02:21:21.051Z,94766.56
2023-02-25T02:24:14.025Z,94779.59
2023-02-25T02:26:51.891Z,94776.66
2023-02-25T02:29:39.613Z,94761.94
2023-02-25T02:32:17.443Z,94769.28
2023-02-25T02:34:57.442Z,94770.91
2023-02-25T02:37:34.929Z,94769.34
2023-02-25T02:40:15.390Z,94772.03
2023-02-25T02:42:53.290Z,94759.47
2023-02-25T02:45:24.766Z,94775.19
2023-02-25T02:47:59.848Z,94768.88
2023-02-25T02:50:34.373Z,94768.88
2023-02-25T02:53:07.807Z,94766.25
2023-02-25T02:55:38.005Z,94772.25
2023-02-25T02:58:11.703Z,94775.81
2023-02-25T03:00:44.043Z,94777.91
2023-02-25T03:03:16.235Z,94767.53
2023-02-25T03:05:48.678Z,94785.94
2023-02-25T03:08:19.962Z,94775.91
2023-02-25T03:10:47.446Z,94784.50
2023-02-25T03:13:15.976Z,94792.13
2023-02-25T03:15:45.287Z,94791.84
2023-02-25T03:18:22.985Z,94792.38
2023-02-25T03:20:54.464Z,94799.25
2023-02-25T03:23:25.165Z,94789.84
2023-02-25T03:25:57.638Z,94793.34
2023-02-25T03:28:29.827Z,94797.09
2023-02-25T03:31:06.307Z,94799.19
2023-02-25T03:33:40.924Z,94804.88
2023-02-25T03:36:13.561Z,94812.88
2023-02-25T03:38:47.692Z,94806.38
2023-02-25T03:41:16.981Z,94810.38
2023-02-25T03:43:49.918Z,94808.28
2023-02-25T03:46:19.602Z,94815.53
2023-02-25T03:48:50.062Z,94813.69
2023-02-25T03:51:22.733Z,94824.13
2023-02-25T03:53:51.112Z,94823.84
2023-02-25T03:56:18.638Z,94817.81
2023-02-25T03:58:46.269Z,94827.78
2023-02-25T04:01:17.564Z,94830.38
2023-02-25T04:03:45.220Z,94836.28
2023-02-25T04:06:14.423Z,94839.19
2023-02-25T04:08:42.405Z,94835.41
2023-02-25T04:11:09.937Z,94850.91
2023-02-25T04:13:37.435Z,94841.66
2023-02-25T04:16:05.453Z,94841.16
2023-02-25T04:18:32.977Z,94839.81
2023-02-25T04:21:00.516Z,94847.34
2023-02-25T04:23:29.483Z,94848.41
2023-02-25T04:25:56.989Z,94854.78
2023-02-25T04:28:24.474Z,94848.94
2023-02-25T04:30:52.076Z,94859.41
2023-02-25T04:33:19.600Z,94860.34
2023-02-25T04:35:47.087Z,94871.59
2023-02-25T04:38:14.558Z,94868.88
2023-02-25T04:40:43.490Z,94861.34
2023-02-25T04:43:10.936Z,94869.00
2023-02-25T04:45:38.401Z,94866.19
2023-02-25T04:48:06.637Z,94871.50
2023-02-25T04:50:34.200Z,94865.94
2023-02-25T04:53:02.759Z,94864.78
2023-02-25T04:55:31.012Z,94867.72
2023-02-25T04:57:59.808Z,94861.53
2023-02-25T05:00:27.909Z,94867.06
2023-02-25T05:02:55.457Z,94870.66
2023-02-25T05:05:22.962Z,94875.50
2023-02-25T05:07:50.459Z,94872.19
2023-02-25T05:10:18.008Z,94885.16
2023-02-25T05:12:45.464Z,94880.25
2023-02-25T05:15:14.815Z,94876.84
2023-02-25T05:17:42.324Z,94874.00
2023-02-25T05:20:13.106Z,94876.63
2023-02-25T05:22:41.025Z,94881.63
2023-02-25T05:25:10.354Z,94880.00
2023-02-25T05:27:38.337Z,94874.97
2023-02-25T05:30:06.886Z,94873.84
2023-02-25T05:32:35.858Z,94883.66
2023-02-25T05:35:03.407Z,94881.88
2023-02-25T05:37:32.563Z,94881.03
2023-02-25T05:39:59.998Z,94874.44
2023-02-25T05:42:27.496Z,94878.50
2023-02-25T05:44:54.985Z,94882.38
2023-02-25T05:47:22.481Z,94879.56
2023-02-25T05:49:51.273Z,94882.03
2023-02-25T05:52:18.753Z,94883.31
2023-02-25T05:54:46.209Z,94887.97
2023-02-25T05:57:13.657Z,94891.19
2023-02-25T05:59:41.116Z,94889.25
2023-02-25T06:02:08.618Z,94891.50
2023-02-25T06:04:36.118Z,94907.19
2023-02-25T06:07:04.917Z,94901.47
2023-02-25T06:09:34.541Z,94912.44
2023-02-25T06:12:01.991Z,94910.09
2023-02-25T06:14:29.488Z,94915.06
2023-02-25T06:16:57.343Z,94912.59
2023-02-25T06:19:26.285Z,94921.28
2023-02-25T06:21:54.727Z,94924.44
2023-02-25T06:24:24.572Z,94913.97
2023-02-25T06:26:52.381Z,94917.34
2023-02-25T06:29:20.096Z,94921.81
2023-02-25T06:31:47.755Z,94924.59
2023-02-25T06:34:15.276Z,94932.97
2023-02-25T06:36:42.739Z,94931.13
2023-02-25T06:39:11.521Z,94937.16
2023-02-25T06:41:40.598Z,94927.53
2023-02-25T06:44:08.057Z,94942.56
2023-02-25T06:46:35.501Z,94940.31
2023-02-25T06:49:02.983Z,94950.03
2023-02-25T06:51:30.449Z,94950.69
2023-02-25T06:53:57.968Z,94955.00
2023-02-25T06:56:26.867Z,94946.72
2023-02-25T06:58:56.675Z,94955.66
2023-02-25T07:01:24.190Z,94959.81
2023-02-25T07:03:51.748Z,94962.97
2023-02-25T07:06:19.745Z,94952.06
2023-02-25T07:08:47.291Z,94954.00
2023-02-25T07:11:29.044Z,94953.13
2023-02-25T07:13:58.330Z,94950.94
2023-02-25T07:16:26.542Z,94956.16
2023-02-25T07:18:54.277Z,94940.44
2023-02-25T07:21:22.870Z,94942.56
2023-02-25T07:23:50.903Z,94942.72
2023-02-25T07:26:18.378Z,94957.00
2023-02-25T07:28:45.821Z,94950.50
2023-02-25T07:31:17.125Z,94969.41
2023-02-25T07:33:45.486Z,94966.16
2023-02-25T07:36:13.297Z,94960.50
2023-02-25T07:38:41.334Z,94962.69
2023-02-25T07:41:09.990Z,94955.75
2023-02-25T07:43:37.691Z,94952.22
2023-02-25T07:46:05.631Z,94955.34
2023-02-25T07:48:34.483Z,94959.22
2023-02-25T07:51:06.229Z,94965.16
2023-02-25T07:53:33.887Z,94935.16
2023-02-25T07:56:01.873Z,94962.75
2023-02-25T07:58:29.493Z,94962.75
2023-02-25T08:00:56.971Z,94962.66
2023-02-25T08:03:24.523Z,94965.22
2023-02-25T08:05:54.611Z,94955.25
2023-02-25T08:08:22.330Z,94959.63
2023-02-25T08:10:50.490Z,94965.34
2023-02-25T08:13:17.927Z,94961.66
2023-02-25T08:15:45.534Z,94958.81
2023-02-25T08:18:13.030Z,94963.34
2023-02-25T08:20:40.517Z,94963.06
2023-02-25T08:23:09.330Z,94953.38
2023-02-25T08:25:36.760Z,94955.91
2023-02-25T08:28:04.411Z,94967.38
2023-02-25T08:30:31.960Z,94968.38
2023-02-25T08:32:59.567Z,94970.75
2023-02-25T08:35:27.403Z,94968.22
2023-02-25T08:37:54.915Z,94978.41
2023-02-25T08:40:23.733Z,94974.06
2023-02-25T08:42:51.230Z,94953.75
2023-02-25T08:45:18.756Z,94976.69
2023-02-25T08:47:46.217Z,94969.44
2023-02-25T08:50:13.730Z,94966.47
2023-02-25T08:52:42.293Z,94973.41
2023-02-25T08:55:11.476Z,94976.66
2023-02-25T08:57:40.254Z,94970.50
2023-02-25T09:00:09.474Z,94981.78
2023-02-25T09:02:37.126Z,94976.25
2023-02-25T09:05:04.983Z,94971.53
2023-02-25T09:07:32.445Z,94982.13
2023-02-25T09:09:59.929Z,94980.06
2023-02-25T09:12:27.488Z,94985.31
2023-02-25T09:14:56.321Z,94987.56
2023-02-25T09:17:23.802Z,94986.22
2023-02-25T09:19:51.413Z,94989.44
2023-02-25T09:22:19.603Z,94987.81
2023-02-25T09:24:47.237Z,94991.09
2023-02-25T09:27:14.715Z,94989.28
2023-02-25T09:29:42.399Z,94976.75
2023-02-25T09:32:18.308Z,94985.44
2023-02-25T09:34:46.114Z,94963.44
2023-02-25T09:37:14.371Z,94974.75
2023-02-25T09:39:42.997Z,94972.16
2023-02-25T09:42:14.797Z,94971.84
2023-02-25T09:44:45.710Z,94972.00
2023-02-25T09:47:21.742Z,94974.19
2023-02-25T09:49:54.322Z,94966.09
2023-02-25T09:52:28.518Z,94972.25
2023-02-25T09:55:00.681Z,94968.66
2023-02-25T09:57:29.597Z,94980.97
2023-02-25T09:59:57.168Z,94968.22
2023-02-25T10:02:35.778Z,94986.38
2023-02-25T10:05:15.353Z,94980.88
2023-02-25T10:07:52.584Z,94994.34
2023-02-25T10:10:24.751Z,94979.78
2023-02-25T10:12:58.148Z,94976.84
2023-02-25T10:15:52.166Z,94993.25
2023-02-25T10:18:37.442Z,94987.03
2023-02-25T10:21:18.233Z,95005.28
2023-02-25T10:23:58.642Z,94999.53
2023-02-25T10:26:29.149Z,94994.75
2023-02-25T10:29:03.181Z,94997.66
2023-02-25T10:31:32.005Z,94997.91
2023-02-25T10:34:20.073Z,95005.25
2023-02-25T10:36:54.289Z,94991.31
2023-02-25T10:39:22.065Z,94990.41
2023-02-25T10:41:50.228Z,94994.78
2023-02-25T10:44:18.018Z,94993.34
2023-02-25T10:46:52.233Z,94991.88
2023-02-25T10:49:23.158Z,94989.63
2023-02-25T10:51:58.195Z,94979.00
2023-02-25T10:54:25.790Z,94981.50
2023-02-25T10:56:54.358Z,94987.66
2023-02-25T10:59:30.075Z,94987.97
2023-02-25T11:02:00.725Z,94978.25
2023-02-25T11:04:35.409Z,94979.28
2023-02-25T11:07:03.099Z,94962.16
2023-02-25T11:09:36.889Z,94969.69
2023-02-25T11:12:18.853Z,94961.78
2023-02-25T11:14:46.731Z,94966.97
2023-02-25T11:17:20.199Z,94950.31
2023-02-25T11:19:53.992Z,94941.53
2023-02-25T11:22:26.362Z,94945.25
2023-02-25T11:25:00.669Z,94954.41
2023-02-25T11:27:36.065Z,94942.41
2023-02-25T11:30:09.282Z,94951.41
2023-02-25T11:32:44.191Z,94960.19
2023-02-25T11:35:19.281Z,94958.78
2023-02-25T11:37:48.493Z,94957.97
2023-02-25T11:40:27.566Z,94948.06
2023-02-25T11:43:03.657Z,94943.75
2023-02-25T11:45:33.379Z,94931.06
2023-02-25T11:48:04.186Z,94926.69
2023-02-25T11:50:38.493Z,94922.31
2023-02-25T11:53:18.032Z,94913.78
2023-02-25T11:55:55.532Z,94911.78
2023-02-25T11:58:34.754Z,94919.63
2023-02-25T12:01:07.491Z,94914.09
2023-02-25T12:04:01.075Z,94907.56
2023-02-25T12:07:01.562Z,94901.09
2023-02-25T12:10:25.551Z,94901.78
2023-02-25T12:13:22.812Z,94905.25
2023-02-25T12:16:17.276Z,94907.72
2023-02-25T12:19:09.870Z,94904.75
2023-02-25T12:21:56.042Z,94906.88
2023-02-25T12:24:59.605Z,94902.13
2023-02-25T12:28:14.785Z,94901.97
2023-02-25T12:31:16.693Z,94916.66
2023-02-25T12:34:14.533Z,94907.88
2023-02-25T12:37:02.869Z,94909.88
2023-02-25T12:39:47.879Z,94910.91
2023-02-25T12:42:38.919Z,94923.88
2023-02-25T12:45:40.020Z,94932.84
2023-02-25T12:48:29.718Z,94931.19
2023-02-25T12:51:15.435Z,94933.63
2023-02-25T12:53:54.521Z,94945.91
2023-02-25T12:56:39.964Z,94942.78
2023-02-25T12:59:40.949Z,94943.63
2023-02-25T13:02:28.740Z,94933.16
2023-02-25T13:05:13.058Z,94926.50
2023-02-25T13:07:53.933Z,94927.34
2023-02-25T13:10:39.136Z,94937.00
2023-02-25T13:13:31.219Z,94961.94
2023-02-25T13:16:13.968Z,94941.41
2023-02-25T13:18:50.727Z,94936.25
2023-02-25T13:21:36.546Z,94953.34
2023-02-25T13:24:16.117Z,94956.34
2023-02-25T13:27:03.367Z,94962.03
2023-02-25T13:29:48.206Z,94961.06
2023-02-25T13:32:27.523Z,94973.63
2023-02-25T13:35:11.460Z,94953.66
2023-02-25T13:37:49.447Z,94949.28
2023-02-25T13:40:38.060Z,94949.44
2023-02-25T13:43:29.335Z,94964.69
2023-02-25T13:46:14.143Z,94946.25
2023-02-25T13:49:04.038Z,94936.47
2023-02-25T13:52:07.334Z,94921.38
2023-02-25T13:54:53.059Z,94917.53
2023-02-25T13:57:36.231Z,94913.41
2023-02-25T14:00:26.905Z,94927.19
2023-02-25T14:03:15.851Z,94920.22
2023-02-25T14:06:03.229Z,94930.81
2023-02-25T14:09:06.564Z,94948.63
2023-02-25T14:11:44.433Z,94948.22
2023-02-25T14:14:32.330Z,94970.19
2023-02-25T14:17:18.501Z,94978.78
2023-02-25T14:20:00.264Z,94987.09
2023-02-25T14:22:37.765Z,94991.63
2023-02-25T14:25:19.438Z,95003.31
2023-02-25T14:27:59.945Z,95002.19
2023-02-25T14:30:36.302Z,94995.19
2023-02-25T14:33:19.497Z,94996.28
2023-02-25T14:36:16.536Z,94989.41
2023-02-25T14:39:06.520Z,94990.78
2023-02-25T14:41:52.398Z,94993.53
2023-02-25T14:44:31.037Z,94995.72
2023-02-25T14:47:02.461Z,94998.50
2023-02-25T14:49:34.741Z,95000.94
2023-02-25T14:52:21.341Z,95010.28
2023-02-25T14:55:28.491Z,95021.31
2023-02-25T14:58:20.801Z,95008.94
2023-02-25T15:01:00.893Z,95024.78
2023-02-25T15:03:43.773Z,95030.41
2023-02-25T15:06:24.105Z,95034.13
2023-02-25T15:09:16.300Z,95033.84
2023-02-25T15:12:01.986Z,95020.50
2023-02-25T15:14:46.927Z,95016.38
2023-02-25T15:17:44.933Z,95025.47
2023-02-25T15:20:30.838Z,95010.44
2023-02-25T15:23:07.803Z,95020.50
2023-02-25T15:25:45.840Z,95016.13
2023-02-25T15:28:48.137Z,95030.97
2023-02-25T15:31:34.401Z,95037.00
2023-02-25T15:34:32.709Z,95039.03
2023-02-25T15:37:21.021Z,95038.97
2023-02-25T15:39:51.405Z,95034.03
2023-02-25T15:42:50.236Z,95045.88
2023-02-25T15:45:45.098Z,95047.94
2023-02-25T15:48:34.751Z,95057.66
2023-02-25T15:51:04.860Z,95057.06
2023-02-25T15:53:48.904Z,95069.47
2023-02-25T15:56:47.544Z,95056.28
2023-02-25T15:59:44.489Z,95061.25
2023-02-25T16:02:41.601Z,95061.75
2023-02-25T16:05:24.523Z,95069.47
2023-02-25T16:08:15.341Z,95073.31
2023-02-25T16:10:47.244Z,95072.91
2023-02-25T16:13:18.121Z,95073.63
2023-02-25T16:15:52.291Z,95067.00
2023-02-25T16:18:28.376Z,95072.41
2023-02-25T16:21:01.532Z,95075.53
2023-02-25T16:23:29.447Z,95074.03
2023-02-25T16:26:08.078Z,95084.59
2023-02-25T16:28:45.122Z,95078.53
2023-02-25T16:31:20.552Z,95072.78
2023-02-25T16:33:53.670Z,95081.16
2023-02-25T16:36:31.613Z,95088.34
2023-02-25T16:39:02.471Z,95094.09
2023-02-25T16:41:38.096Z,95099.94
2023-02-25T16:44:07.726Z,95111.25
2023-02-25T16:46:39.024Z,95102.91
2023-02-25T16:49:10.937Z,95104.69
2023-02-25T16:51:41.244Z,95104.41
2023-02-25T16:54:13.941Z,95104.16
2023-02-25T16:56:44.248Z,95102.22
2023-02-25T16:59:18.950Z,95114.28
2023-02-25T17:01:56.848Z,95120.22
2023-02-25T17:04:27.900Z,95124.75
2023-02-25T17:07:13.017Z,95127.47
2023-02-25T17:09:46.022Z,95141.44
2023-02-25T17:12:18.716Z,95144.19
2023-02-25T17:14:48.848Z,95138.28
2023-02-25T17:17:22.416Z,95148.06
2023-02-25T17:19:51.886Z,95162.97
2023-02-25T17:22:22.377Z,95155.91
2023-02-25T17:24:52.667Z,95164.63
2023-02-25T17:27:21.243Z,95157.78
2023-02-25T17:29:50.500Z,95159.22
2023-02-25T17:32:23.698Z,95166.34
2023-02-25T17:34:54.361Z,95175.94
2023-02-25T17:37:22.936Z,95184.59
2023-02-25T17:39:51.110Z,95180.56
2023-02-25T17:42:30.021Z,95191.00
2023-02-25T17:44:58.807Z,95190.31
2023-02-25T17:47:30.763Z,95185.88
2023-02-25T17:50:01.478Z,95190.13
2023-02-25T17:52:31.890Z,95191.00
2023-02-25T17:55:02.900Z,95193.75
2023-02-25T17:57:33.089Z,95193.44
2023-02-25T18:00:13.964Z,95194.84
2023-02-25T18:02:43.966Z,95196.59
2023-02-25T18:05:24.558Z,95200.28
2023-02-25T18:08:19.333Z,95200.53
2023-02-25T18:10:56.261Z,95204.72
2023-02-25T18:13:28.993Z,95205.69
2023-02-25T18:16:18.668Z,95213.00
2023-02-25T18:18:50.740Z,95203.78
2023-02-25T18:21:19.088Z,95204.84
2023-02-25T18:23:48.078Z,95211.06
2023-02-25T18:26:19.519Z,95215.09
2023-02-25T18:28:47.575Z,95221.88
2023-02-25T18:31:16.819Z,95221.94
2023-02-25T18:33:46.105Z,95220.97
2023-02-25T18:36:20.643Z,95221.50
2023-02-25T18:38:48.098Z,95218.78
2023-02-25T18:41:16.220Z,95216.44
2023-02-25T18:43:44.956Z,95218.56
2023-02-25T18:46:12.730Z,95231.47
2023-02-25T18:48:40.657Z,95235.75
2023-02-25T18:51:13.360Z,95240.25
2023-02-25T18:53:42.535Z,95276.13
2023-02-25T18:56:16.982Z,95265.91
2023-02-25T18:58:45.300Z,95279.53
2023-02-25T19:01:23.412Z,95282.13
2023-02-25T19:03:52.003Z,95282.06
2023-02-25T19:06:19.564Z,95291.50
2023-02-25T19:08:48.382Z,95286.56
2023-02-25T19:11:20.884Z,95294.69
2023-02-25T19:13:48.612Z,95289.66
2023-02-25T19:16:16.748Z,95299.22
2023-02-25T19:18:44.646Z,95295.31
2023-02-25T19:21:14.214Z,95293.13
2023-02-25T19:23:41.760Z,95300.69
2023-02-25T19:26:11.390Z,95292.78
2023-02-25T19:28:39.514Z,95288.78
2023-02-25T19:31:07.878Z,95291.25
2023-02-25T19:33:36.096Z,95300.31
2023-02-25T19:36:04.849Z,95298.72
2023-02-25T19:38:32.318Z,95293.56
2023-02-25T19:41:03.677Z,95305.09
2023-02-25T19:43:33.232Z,95303.94
2023-02-25T19:46:01.243Z,95310.72
2023-02-25T19:48:28.867Z,95308.66
2023-02-25T19:50:56.490Z,95314.25
2023-02-25T19:53:26.073Z,95322.56
2023-02-25T19:55:57.226Z,95317.34
2023-02-25T19:58:24.763Z,95305.28
2023-02-25T20:00:53.573Z,95310.78
2023-02-25T20:03:21.041Z,95310.84
2023-02-25T20:05:48.658Z,95318.50
2023-02-25T20:08:16.143Z,95319.41
2023-02-25T20:10:44.583Z,95334.22
2023-02-25T20:13:12.025Z,95330.59
2023-02-25T20:15:39.583Z,95337.41
2023-02-25T20:18:08.374Z,95338.63
2023-02-25T20:20:37.010Z,95337.88
2023-02-25T20:23:04.470Z,95334.56
2023-02-25T20:25:31.938Z,95338.56
2023-02-25T20:27:59.407Z,95342.69
2023-02-25T20:30:27.158Z,95339.94
2023-02-25T20:32:54.670Z,95347.44
2023-02-25T20:35:26.100Z,95348.78
2023-02-25T20:38:14.764Z,95359.38
2023-02-25T20:40:42.434Z,95349.69
2023-02-25T20:43:10.520Z,95361.81
2023-02-25T20:45:38.620Z,95358.16
2023-02-25T20:48:06.569Z,95360.19
2023-02-25T20:50:38.165Z,95365.41
2023-02-25T20:53:05.805Z,95363.06
2023-02-25T20:55:33.293Z,95362.72
2023-02-25T20:58:00.786Z,95359.38
2023-02-25T21:00:28.349Z,95371.63
2023-02-25T21:02:56.061Z,95360.56
2023-02-25T21:05:23.533Z,95370.06
2023-02-25T21:07:52.346Z,95368.28
2023-02-25T21:10:19.847Z,95369.22
2023-02-25T21:12:47.278Z,95372.31
2023-02-25T21:15:14.762Z,95376.22
2023-02-25T21:17:42.617Z,95366.25
2023-02-25T21:20:11.420Z,95370.31
2023-02-25T21:22:38.893Z,95376.81
2023-02-25T21:25:08.355Z,95372.53
2023-02-25T21:27:35.889Z,95379.16
2023-02-25T21:30:03.371Z,95386.66
2023-02-25T21:32:30.822Z,95375.50
2023-02-25T21:34:58.290Z,95378.59
2023-02-25T21:37:26.848Z,95377.28
2023-02-25T21:39:54.396Z,95385.47
2023-02-25T21:42:23.652Z,95383.22
2023-02-25T21:44:51.185Z,95385.34
2023-02-25T21:47:18.753Z,95390.28
2023-02-25T21:49:46.541Z,95391.50
2023-02-25T21:52:13.990Z,95390.19
2023-02-25T21:54:41.475Z,95388.88
2023-02-25T21:57:08.955Z,95384.38
2023-02-25T21:59:37.787Z,95401.22
2023-02-25T22:02:05.283Z,95393.38
2023-02-25T22:04:32.851Z,95386.50
2023-02-25T22:07:00.339Z,95400.94
2023-02-25T22:09:28.040Z,95404.75
2023-02-25T22:11:55.513Z,95394.78
2023-02-25T22:14:24.614Z,95393.63
2023-02-25T22:16:53.424Z,95392.91
2023-02-25T22:19:20.880Z,95396.09
2023-02-25T22:21:48.381Z,95396.44
2023-02-25T22:24:15.886Z,95393.97
2023-02-25T22:26:44.711Z,95399.31
2023-02-25T22:29:12.194Z,95396.28
2023-02-25T22:31:39.707Z,95407.53
2023-02-25T22:34:09.034Z,95404.22
2023-02-25T22:36:36.542Z,95413.22
2023-02-25T22:39:05.842Z,95405.53
2023-02-25T22:41:33.380Z,95407.66
2023-02-25T22:44:02.332Z,95413.94
2023-02-25T22:46:31.442Z,95411.31
2023-02-25T22:48:59.727Z,95410.75
2023-02-25T22:51:30.646Z,95418.59
2023-02-25T22:53:58.506Z,95429.47
2023-02-25T22:56:26.727Z,95423.59
2023-02-25T22:58:54.826Z,95424.50
2023-02-25T23:01:23.658Z,95417.91
2023-02-25T23:03:52.520Z,95424.13
2023-02-25T23:06:24.906Z,95413.53
2023-02-25T23:08:57.670Z,95424.78
2023-02-25T23:11:27.633Z,95425.41
2023-02-25T23:13:58.249Z,95431.53
2023-02-25T23:16:29.573Z,95437.97
2023-02-25T23:18:58.651Z,95431.72
2023-02-25T23:21:26.815Z,95430.03
2023-02-25T23:23:57.403Z,95433.94
2023-02-25T23:26:28.237Z,95433.03
2023-02-25T23:28:56.333Z,95431.81
2023-02-25T23:31:25.501Z,95431.19
2023-02-25T23:33:55.858Z,95439.00
2023-02-25T23:36:23.757Z,95449.78
2023-02-25T23:38:53.886Z,95442.44
2023-02-25T23:41:31.666Z,95440.78
2023-02-25T23:44:01.690Z,95432.69
2023-02-25T23:46:31.630Z,95438.31
2023-02-25T23:49:00.619Z,95438.53
2023-02-25T23:51:29.008Z,95435.41
2023-02-25T23:53:58.159Z,95439.41
2023-02-25T23:56:27.056Z,95436.69
2023-02-25T23:58:56.823Z,95437.19
